sensor_id;sensor_type;location;lat;lon;timestamp;temperature;humidity
53711;DHT22;39605;52.704;6.752;2023-03-16T00:02:18;4.50;1.00
53711;DHT22;39605;52.704;6.752;2023-03-16T00:04:44;4.50;1.00
53711;DHT22;39605;52.704;6.752;2023-03-16T00:07:12;4.50;1.00
53711;DHT22;39605;52.704;6.752;2023-03-16T00:09:38;4.50;1.00
53711;DHT22;39605;52.704;6.752;2023-03-16T00:12:12;4.50;1.00
53711;DHT22;39605;52.704;6.752;2023-03-16T00:14:41;4.50;1.00
53711;DHT22;39605;52.704;6.752;2023-03-16T00:17:06;4.50;1.00
53711;DHT22;39605;52.704;6.752;2023-03-16T00:19:32;4.50;1.00
53711;DHT22;39605;52.704;6.752;2023-03-16T00:22:03;4.50;1.00
53711;DHT22;39605;52.704;6.752;2023-03-16T00:24:28;4.50;1.00
53711;DHT22;39605;52.704;6.752;2023-03-16T00:26:54;4.50;1.00
53711;DHT22;39605;52.704;6.752;2023-03-16T00:29:20;4.50;1.00
53711;DHT22;39605;52.704;6.752;2023-03-16T00:31:47;4.60;1.00
53711;DHT22;39605;52.704;6.752;2023-03-16T00:34:13;4.60;1.00
53711;DHT22;39605;52.704;6.752;2023-03-16T00:36:39;4.60;2.80
53711;DHT22;39605;52.704;6.752;2023-03-16T00:39:07;4.70;30.50
53711;DHT22;39605;52.704;6.752;2023-03-16T00:41:35;4.60;1.00
53711;DHT22;39605;52.704;6.752;2023-03-16T00:44:03;4.70;1.00
53711;DHT22;39605;52.704;6.752;2023-03-16T00:46:29;4.60;1.00
53711;DHT22;39605;52.704;6.752;2023-03-16T00:48:55;4.60;1.00
53711;DHT22;39605;52.704;6.752;2023-03-16T00:51:21;4.70;6.10
53711;DHT22;39605;52.704;6.752;2023-03-16T00:53:48;4.60;24.30
53711;DHT22;39605;52.704;6.752;2023-03-16T00:56:14;4.60;28.10
53711;DHT22;39605;52.704;6.752;2023-03-16T00:58:41;4.60;23.80
53711;DHT22;39605;52.704;6.752;2023-03-16T01:01:16;4.60;16.20
53711;DHT22;39605;52.704;6.752;2023-03-16T01:03:43;4.60;39.40
53711;DHT22;39605;52.704;6.752;2023-03-16T01:06:14;4.60;95.80
53711;DHT22;39605;52.704;6.752;2023-03-16T01:08:42;4.60;96.60
53711;DHT22;39605;52.704;6.752;2023-03-16T01:11:14;4.60;99.90
53711;DHT22;39605;52.704;6.752;2023-03-16T01:13:43;4.60;99.90
53711;DHT22;39605;52.704;6.752;2023-03-16T01:16:09;4.60;99.90
53711;DHT22;39605;52.704;6.752;2023-03-16T01:18:35;4.50;99.90
53711;DHT22;39605;52.704;6.752;2023-03-16T01:21:02;4.50;99.90
53711;DHT22;39605;52.704;6.752;2023-03-16T01:23:31;4.50;99.90
53711;DHT22;39605;52.704;6.752;2023-03-16T01:25:57;4.50;99.90
53711;DHT22;39605;52.704;6.752;2023-03-16T01:28:25;4.50;99.90
53711;DHT22;39605;52.704;6.752;2023-03-16T01:30:52;4.50;99.90
53711;DHT22;39605;52.704;6.752;2023-03-16T01:43:18;4.40;99.90
53711;DHT22;39605;52.704;6.752;2023-03-16T01:48:48;4.40;99.90
53711;DHT22;39605;52.704;6.752;2023-03-16T01:53:54;4.30;99.90
53711;DHT22;39605;52.704;6.752;2023-03-16T01:56:25;4.40;99.90
53711;DHT22;39605;52.704;6.752;2023-03-16T01:58:52;4.40;99.90
53711;DHT22;39605;52.704;6.752;2023-03-16T02:01:24;4.40;99.90
53711;DHT22;39605;52.704;6.752;2023-03-16T02:03:54;4.40;99.90
53711;DHT22;39605;52.704;6.752;2023-03-16T02:06:21;4.40;99.90
53711;DHT22;39605;52.704;6.752;2023-03-16T02:08:49;4.30;99.90
53711;DHT22;39605;52.704;6.752;2023-03-16T02:11:16;4.30;99.90
53711;DHT22;39605;52.704;6.752;2023-03-16T02:13:47;4.30;99.90
53711;DHT22;39605;52.704;6.752;2023-03-16T02:16:14;4.30;99.90
53711;DHT22;39605;52.704;6.752;2023-03-16T02:18:47;4.30;1.00
53711;DHT22;39605;52.704;6.752;2023-03-16T02:21:38;4.30;99.90
53711;DHT22;39605;52.704;6.752;2023-03-16T02:24:06;4.30;1.00
53711;DHT22;39605;52.704;6.752;2023-03-16T02:26:47;4.20;1.00
53711;DHT22;39605;52.704;6.752;2023-03-16T02:32:11;4.20;1.00
53711;DHT22;39605;52.704;6.752;2023-03-16T02:34:38;4.20;1.00
53711;DHT22;39605;52.704;6.752;2023-03-16T02:37:05;4.20;94.60
53711;DHT22;39605;52.704;6.752;2023-03-16T02:39:31;4.20;1.00
53711;DHT22;39605;52.704;6.752;2023-03-16T02:41:59;4.30;1.00
53711;DHT22;39605;52.704;6.752;2023-03-16T02:44:30;4.30;1.00
53711;DHT22;39605;52.704;6.752;2023-03-16T02:47:04;4.30;99.90
53711;DHT22;39605;52.704;6.752;2023-03-16T02:49:40;4.30;1.00
53711;DHT22;39605;52.704;6.752;2023-03-16T02:52:06;4.40;99.90
53711;DHT22;39605;52.704;6.752;2023-03-16T02:54:33;4.40;99.90
53711;DHT22;39605;52.704;6.752;2023-03-16T02:56:58;4.40;99.90
53711;DHT22;39605;52.704;6.752;2023-03-16T02:59:24;4.40;99.90
53711;DHT22;39605;52.704;6.752;2023-03-16T03:01:49;4.40;99.90
53711;DHT22;39605;52.704;6.752;2023-03-16T03:04:16;4.50;99.90
53711;DHT22;39605;52.704;6.752;2023-03-16T03:06:41;4.50;99.90
53711;DHT22;39605;52.704;6.752;2023-03-16T03:09:08;4.50;99.90
53711;DHT22;39605;52.704;6.752;2023-03-16T03:11:36;4.50;99.90
53711;DHT22;39605;52.704;6.752;2023-03-16T03:14:02;4.50;1.00
53711;DHT22;39605;52.704;6.752;2023-03-16T03:16:29;4.50;99.90
53711;DHT22;39605;52.704;6.752;2023-03-16T03:18:56;4.50;1.00
53711;DHT22;39605;52.704;6.752;2023-03-16T03:21:22;4.50;1.00
53711;DHT22;39605;52.704;6.752;2023-03-16T03:23:48;4.50;1.00
53711;DHT22;39605;52.704;6.752;2023-03-16T03:26:15;4.50;1.00
53711;DHT22;39605;52.704;6.752;2023-03-16T03:28:41;4.50;1.00
53711;DHT22;39605;52.704;6.752;2023-03-16T03:31:16;4.50;1.00
53711;DHT22;39605;52.704;6.752;2023-03-16T03:33:42;4.50;1.00
53711;DHT22;39605;52.704;6.752;2023-03-16T03:36:08;4.50;1.00
53711;DHT22;39605;52.704;6.752;2023-03-16T03:38:36;4.50;1.00
53711;DHT22;39605;52.704;6.752;2023-03-16T03:41:02;4.50;31.10
53711;DHT22;39605;52.704;6.752;2023-03-16T03:43:28;4.50;1.00
53711;DHT22;39605;52.704;6.752;2023-03-16T03:45:59;4.50;1.00
53711;DHT22;39605;52.704;6.752;2023-03-16T03:48:26;4.50;1.00
53711;DHT22;39605;52.704;6.752;2023-03-16T03:50:52;4.50;1.00
53711;DHT22;39605;52.704;6.752;2023-03-16T03:53:18;4.50;1.00
53711;DHT22;39605;52.704;6.752;2023-03-16T03:55:44;4.50;1.00
53711;DHT22;39605;52.704;6.752;2023-03-16T03:58:10;4.60;31.20
53711;DHT22;39605;52.704;6.752;2023-03-16T04:00:37;4.60;10.50
53711;DHT22;39605;52.704;6.752;2023-03-16T04:03:03;4.60;1.00
53711;DHT22;39605;52.704;6.752;2023-03-16T04:05:29;4.60;1.00
53711;DHT22;39605;52.704;6.752;2023-03-16T04:07:56;4.60;77.30
53711;DHT22;39605;52.704;6.752;2023-03-16T04:10:26;4.60;78.40
53711;DHT22;39605;52.704;6.752;2023-03-16T04:12:55;4.60;22.80
53711;DHT22;39605;52.704;6.752;2023-03-16T04:15:20;4.60;99.90
53711;DHT22;39605;52.704;6.752;2023-03-16T04:17:47;4.60;99.90
53711;DHT22;39605;52.704;6.752;2023-03-16T04:20:14;4.70;99.90
53711;DHT22;39605;52.704;6.752;2023-03-16T04:22:46;4.60;99.90
53711;DHT22;39605;52.704;6.752;2023-03-16T04:25:14;4.60;99.90
53711;DHT22;39605;52.704;6.752;2023-03-16T04:27:41;4.60;99.90
53711;DHT22;39605;52.704;6.752;2023-03-16T04:30:11;4.60;99.90
53711;DHT22;39605;52.704;6.752;2023-03-16T04:32:38;4.60;99.90
53711;DHT22;39605;52.704;6.752;2023-03-16T04:35:04;4.60;99.90
53711;DHT22;39605;52.704;6.752;2023-03-16T04:37:30;4.60;1.00
53711;DHT22;39605;52.704;6.752;2023-03-16T04:39:56;4.70;99.90
53711;DHT22;39605;52.704;6.752;2023-03-16T04:42:22;4.60;1.00
53711;DHT22;39605;52.704;6.752;2023-03-16T04:44:48;4.60;1.00
53711;DHT22;39605;52.704;6.752;2023-03-16T04:47:15;4.50;1.00
53711;DHT22;39605;52.704;6.752;2023-03-16T04:49:41;4.50;1.00
53711;DHT22;39605;52.704;6.752;2023-03-16T04:52:08;4.60;8.30
53711;DHT22;39605;52.704;6.752;2023-03-16T04:54:34;4.60;99.90
53711;DHT22;39605;52.704;6.752;2023-03-16T04:57:00;4.50;99.90
53711;DHT22;39605;52.704;6.752;2023-03-16T04:59:28;4.60;99.90
53711;DHT22;39605;52.704;6.752;2023-03-16T05:01:56;4.60;99.90
53711;DHT22;39605;52.704;6.752;2023-03-16T05:04:22;4.60;99.90
53711;DHT22;39605;52.704;6.752;2023-03-16T05:06:49;4.60;99.90
53711;DHT22;39605;52.704;6.752;2023-03-16T05:09:14;4.60;99.90
53711;DHT22;39605;52.704;6.752;2023-03-16T05:11:40;4.60;99.90
53711;DHT22;39605;52.704;6.752;2023-03-16T05:14:06;4.60;99.90
53711;DHT22;39605;52.704;6.752;2023-03-16T05:16:31;4.60;99.90
53711;DHT22;39605;52.704;6.752;2023-03-16T05:18:59;4.60;99.90
53711;DHT22;39605;52.704;6.752;2023-03-16T05:21:25;4.60;1.00
53711;DHT22;39605;52.704;6.752;2023-03-16T05:23:50;4.60;99.90
53711;DHT22;39605;52.704;6.752;2023-03-16T05:26:17;4.60;82.10
53711;DHT22;39605;52.704;6.752;2023-03-16T05:28:43;4.70;1.00
53711;DHT22;39605;52.704;6.752;2023-03-16T05:31:09;4.60;1.00
53711;DHT22;39605;52.704;6.752;2023-03-16T05:33:35;4.60;1.00
53711;DHT22;39605;52.704;6.752;2023-03-16T05:36:01;4.60;1.00
53711;DHT22;39605;52.704;6.752;2023-03-16T05:38:28;4.60;1.00
53711;DHT22;39605;52.704;6.752;2023-03-16T05:40:54;4.60;99.90
53711;DHT22;39605;52.704;6.752;2023-03-16T05:43:22;4.60;1.00
53711;DHT22;39605;52.704;6.752;2023-03-16T05:45:47;4.70;1.00
53711;DHT22;39605;52.704;6.752;2023-03-16T05:48:13;4.60;99.90
53711;DHT22;39605;52.704;6.752;2023-03-16T05:50:40;4.60;52.80
53711;DHT22;39605;52.704;6.752;2023-03-16T05:53:07;4.60;61.20
53711;DHT22;39605;52.704;6.752;2023-03-16T05:55:33;4.70;12.00
53711;DHT22;39605;52.704;6.752;2023-03-16T05:57:59;4.60;1.00
53711;DHT22;39605;52.704;6.752;2023-03-16T06:00:25;4.60;1.00
53711;DHT22;39605;52.704;6.752;2023-03-16T06:02:52;4.70;19.90
53711;DHT22;39605;52.704;6.752;2023-03-16T06:05:19;4.60;11.50
53711;DHT22;39605;52.704;6.752;2023-03-16T06:07:46;4.70;72.00
53711;DHT22;39605;52.704;6.752;2023-03-16T06:10:12;4.70;1.00
53711;DHT22;39605;52.704;6.752;2023-03-16T06:12:39;4.70;99.90
53711;DHT22;39605;52.704;6.752;2023-03-16T06:15:07;4.70;1.00
53711;DHT22;39605;52.704;6.752;2023-03-16T06:17:36;4.70;1.00
53711;DHT22;39605;52.704;6.752;2023-03-16T06:20:03;4.70;99.90
53711;DHT22;39605;52.704;6.752;2023-03-16T06:22:35;4.70;99.90
53711;DHT22;39605;52.704;6.752;2023-03-16T06:25:00;4.70;99.90
53711;DHT22;39605;52.704;6.752;2023-03-16T06:27:26;4.80;99.90
53711;DHT22;39605;52.704;6.752;2023-03-16T06:29:52;4.80;83.30
53711;DHT22;39605;52.704;6.752;2023-03-16T06:32:18;4.70;99.90
53711;DHT22;39605;52.704;6.752;2023-03-16T06:34:44;4.80;47.50
53711;DHT22;39605;52.704;6.752;2023-03-16T06:37:10;4.80;1.00
53711;DHT22;39605;52.704;6.752;2023-03-16T06:39:35;4.80;1.00
53711;DHT22;39605;52.704;6.752;2023-03-16T06:42:01;4.80;99.90
53711;DHT22;39605;52.704;6.752;2023-03-16T06:44:29;4.80;1.00
53711;DHT22;39605;52.704;6.752;2023-03-16T06:46:54;4.80;99.90
53711;DHT22;39605;52.704;6.752;2023-03-16T06:49:20;4.80;99.90
53711;DHT22;39605;52.704;6.752;2023-03-16T06:51:46;4.90;99.90
53711;DHT22;39605;52.704;6.752;2023-03-16T06:54:12;4.90;99.90
53711;DHT22;39605;52.704;6.752;2023-03-16T06:56:38;4.90;99.90
53711;DHT22;39605;52.704;6.752;2023-03-16T06:59:03;4.90;99.90
53711;DHT22;39605;52.704;6.752;2023-03-16T07:01:29;5.00;99.90
53711;DHT22;39605;52.704;6.752;2023-03-16T07:03:54;5.00;99.90
53711;DHT22;39605;52.704;6.752;2023-03-16T07:06:20;5.00;99.90
53711;DHT22;39605;52.704;6.752;2023-03-16T07:08:46;5.10;99.90
53711;DHT22;39605;52.704;6.752;2023-03-16T07:11:12;5.10;6.10
53711;DHT22;39605;52.704;6.752;2023-03-16T07:13:39;5.10;18.20
53711;DHT22;39605;52.704;6.752;2023-03-16T07:16:05;5.10;10.50
53711;DHT22;39605;52.704;6.752;2023-03-16T07:18:32;5.10;99.90
53711;DHT22;39605;52.704;6.752;2023-03-16T07:20:58;5.10;99.90
53711;DHT22;39605;52.704;6.752;2023-03-16T07:23:24;5.20;99.90
53711;DHT22;39605;52.704;6.752;2023-03-16T07:25:50;5.20;99.90
53711;DHT22;39605;52.704;6.752;2023-03-16T07:28:17;5.20;99.90
53711;DHT22;39605;52.704;6.752;2023-03-16T07:30:46;5.30;99.90
53711;DHT22;39605;52.704;6.752;2023-03-16T07:33:12;5.20;99.90
53711;DHT22;39605;52.704;6.752;2023-03-16T07:35:38;5.30;99.90
53711;DHT22;39605;52.704;6.752;2023-03-16T07:38:04;5.30;99.90
53711;DHT22;39605;52.704;6.752;2023-03-16T07:40:33;5.30;99.90
53711;DHT22;39605;52.704;6.752;2023-03-16T07:42:59;5.30;99.90
53711;DHT22;39605;52.704;6.752;2023-03-16T07:45:24;5.30;99.90
53711;DHT22;39605;52.704;6.752;2023-03-16T07:47:50;5.30;99.90
53711;DHT22;39605;52.704;6.752;2023-03-16T07:50:16;5.40;1.00
53711;DHT22;39605;52.704;6.752;2023-03-16T07:52:44;5.30;99.90
53711;DHT22;39605;52.704;6.752;2023-03-16T07:55:11;5.40;99.90
53711;DHT22;39605;52.704;6.752;2023-03-16T07:57:37;5.50;99.90
53711;DHT22;39605;52.704;6.752;2023-03-16T08:00:05;5.50;27.60
53711;DHT22;39605;52.704;6.752;2023-03-16T08:02:32;5.50;99.90
53711;DHT22;39605;52.704;6.752;2023-03-16T08:04:58;5.50;99.90
53711;DHT22;39605;52.704;6.752;2023-03-16T08:07:24;5.60;1.00
53711;DHT22;39605;52.704;6.752;2023-03-16T08:09:50;5.60;99.90
53711;DHT22;39605;52.704;6.752;2023-03-16T08:12:16;5.70;1.00
53711;DHT22;39605;52.704;6.752;2023-03-16T08:14:42;5.70;99.90
53711;DHT22;39605;52.704;6.752;2023-03-16T08:17:10;5.70;42.30
53711;DHT22;39605;52.704;6.752;2023-03-16T08:19:36;5.70;1.00
53711;DHT22;39605;52.704;6.752;2023-03-16T08:22:03;5.70;1.00
53711;DHT22;39605;52.704;6.752;2023-03-16T08:24:30;5.70;1.00
53711;DHT22;39605;52.704;6.752;2023-03-16T08:26:57;5.70;99.90
53711;DHT22;39605;52.704;6.752;2023-03-16T08:29:24;5.60;99.90
53711;DHT22;39605;52.704;6.752;2023-03-16T08:31:54;5.70;99.90
53711;DHT22;39605;52.704;6.752;2023-03-16T08:34:23;5.70;99.90
53711;DHT22;39605;52.704;6.752;2023-03-16T08:36:49;5.70;99.90
53711;DHT22;39605;52.704;6.752;2023-03-16T08:39:15;5.70;99.90
53711;DHT22;39605;52.704;6.752;2023-03-16T08:41:41;5.70;99.90
53711;DHT22;39605;52.704;6.752;2023-03-16T08:44:08;5.70;99.90
53711;DHT22;39605;52.704;6.752;2023-03-16T08:46:35;5.70;99.90
53711;DHT22;39605;52.704;6.752;2023-03-16T08:49:01;5.80;1.00
53711;DHT22;39605;52.704;6.752;2023-03-16T08:51:27;5.80;99.90
53711;DHT22;39605;52.704;6.752;2023-03-16T08:53:54;5.80;99.90
53711;DHT22;39605;52.704;6.752;2023-03-16T08:56:20;5.80;99.90
53711;DHT22;39605;52.704;6.752;2023-03-16T08:58:46;5.80;99.90
53711;DHT22;39605;52.704;6.752;2023-03-16T09:01:14;5.90;99.90
53711;DHT22;39605;52.704;6.752;2023-03-16T09:03:41;5.90;99.90
53711;DHT22;39605;52.704;6.752;2023-03-16T09:06:11;5.90;99.90
53711;DHT22;39605;52.704;6.752;2023-03-16T09:08:39;5.90;99.90
53711;DHT22;39605;52.704;6.752;2023-03-16T09:11:07;5.90;99.90
53711;DHT22;39605;52.704;6.752;2023-03-16T09:13:34;5.80;99.90
53711;DHT22;39605;52.704;6.752;2023-03-16T09:16:00;5.90;1.00
53711;DHT22;39605;52.704;6.752;2023-03-16T09:18:27;5.90;99.90
53711;DHT22;39605;52.704;6.752;2023-03-16T09:20:59;6.00;99.90
53711;DHT22;39605;52.704;6.752;2023-03-16T09:23:26;6.00;99.90
53711;DHT22;39605;52.704;6.752;2023-03-16T09:25:52;6.00;99.90
53711;DHT22;39605;52.704;6.752;2023-03-16T09:28:21;6.00;1.00
53711;DHT22;39605;52.704;6.752;2023-03-16T09:30:47;6.00;1.00
53711;DHT22;39605;52.704;6.752;2023-03-16T09:33:14;6.10;1.00
53711;DHT22;39605;52.704;6.752;2023-03-16T09:35:40;6.00;1.00
53711;DHT22;39605;52.704;6.752;2023-03-16T09:38:05;6.10;1.00
53711;DHT22;39605;52.704;6.752;2023-03-16T09:40:31;6.10;1.00
53711;DHT22;39605;52.704;6.752;2023-03-16T09:43:25;6.10;1.00
53711;DHT22;39605;52.704;6.752;2023-03-16T09:48:42;6.10;1.00
53711;DHT22;39605;52.704;6.752;2023-03-16T09:51:41;6.20;1.00
53711;DHT22;39605;52.704;6.752;2023-03-16T09:54:33;6.20;1.00
53711;DHT22;39605;52.704;6.752;2023-03-16T09:57:03;6.20;1.00
53711;DHT22;39605;52.704;6.752;2023-03-16T09:59:30;6.30;1.00
53711;DHT22;39605;52.704;6.752;2023-03-16T10:07:41;6.30;1.00
53711;DHT22;39605;52.704;6.752;2023-03-16T10:12:43;6.30;1.00
53711;DHT22;39605;52.704;6.752;2023-03-16T10:15:22;6.30;1.00
53711;DHT22;39605;52.704;6.752;2023-03-16T10:18:15;6.30;1.00
53711;DHT22;39605;52.704;6.752;2023-03-16T10:20:43;6.30;12.20
53711;DHT22;39605;52.704;6.752;2023-03-16T10:23:30;6.30;7.10
53711;DHT22;39605;52.704;6.752;2023-03-16T10:25:58;6.30;8.70
53711;DHT22;39605;52.704;6.752;2023-03-16T10:28:26;6.40;9.90
53711;DHT22;39605;52.704;6.752;2023-03-16T10:30:54;6.40;2.70
53711;DHT22;39605;52.704;6.752;2023-03-16T10:33:26;6.40;7.50
53711;DHT22;39605;52.704;6.752;2023-03-16T10:38:40;6.50;10.90
53711;DHT22;39605;52.704;6.752;2023-03-16T10:43:45;6.60;5.70
53711;DHT22;39605;52.704;6.752;2023-03-16T10:46:12;6.70;1.00
53711;DHT22;39605;52.704;6.752;2023-03-16T10:48:38;6.70;1.00
53711;DHT22;39605;52.704;6.752;2023-03-16T10:51:12;6.70;3.70
53711;DHT22;39605;52.704;6.752;2023-03-16T10:53:41;6.80;1.00
53711;DHT22;39605;52.704;6.752;2023-03-16T10:56:11;6.80;1.00
53711;DHT22;39605;52.704;6.752;2023-03-16T10:58:42;6.80;1.00
53711;DHT22;39605;52.704;6.752;2023-03-16T11:01:27;6.90;1.00
53711;DHT22;39605;52.704;6.752;2023-03-16T11:03:57;6.90;1.00
53711;DHT22;39605;52.704;6.752;2023-03-16T11:06:26;7.00;1.00
53711;DHT22;39605;52.704;6.752;2023-03-16T11:09:02;7.00;1.00
53711;DHT22;39605;52.704;6.752;2023-03-16T11:11:31;7.00;1.00
53711;DHT22;39605;52.704;6.752;2023-03-16T11:14:01;7.00;1.00
53711;DHT22;39605;52.704;6.752;2023-03-16T11:16:59;7.10;1.00
53711;DHT22;39605;52.704;6.752;2023-03-16T11:19:32;7.10;1.00
53711;DHT22;39605;52.704;6.752;2023-03-16T11:22:12;7.10;1.00
53711;DHT22;39605;52.704;6.752;2023-03-16T11:25:07;7.10;1.00
53711;DHT22;39605;52.704;6.752;2023-03-16T11:30:29;7.30;1.00
53711;DHT22;39605;52.704;6.752;2023-03-16T11:32:56;7.30;1.00
53711;DHT22;39605;52.704;6.752;2023-03-16T11:35:48;7.40;1.00
53711;DHT22;39605;52.704;6.752;2023-03-16T11:38:32;7.40;1.00
53711;DHT22;39605;52.704;6.752;2023-03-16T11:41:02;7.50;1.00
53711;DHT22;39605;52.704;6.752;2023-03-16T11:43:51;7.60;1.00
53711;DHT22;39605;52.704;6.752;2023-03-16T11:46:39;7.60;1.00
53711;DHT22;39605;52.704;6.752;2023-03-16T11:57:29;7.80;1.00
53711;DHT22;39605;52.704;6.752;2023-03-16T12:03:33;7.90;1.00
53711;DHT22;39605;52.704;6.752;2023-03-16T12:14:14;8.50;99.90
53711;DHT22;39605;52.704;6.752;2023-03-16T12:19:20;8.70;99.90
53711;DHT22;39605;52.704;6.752;2023-03-16T12:21:55;8.90;99.90
53711;DHT22;39605;52.704;6.752;2023-03-16T12:24:25;9.00;99.90
53711;DHT22;39605;52.704;6.752;2023-03-16T12:26:54;9.20;99.90
53711;DHT22;39605;52.704;6.752;2023-03-16T12:29:39;9.20;99.90
53711;DHT22;39605;52.704;6.752;2023-03-16T12:32:11;9.20;1.00
53711;DHT22;39605;52.704;6.752;2023-03-16T12:35:16;9.10;99.90
53711;DHT22;39605;52.704;6.752;2023-03-16T12:37:45;9.10;99.90
53711;DHT22;39605;52.704;6.752;2023-03-16T12:40:35;9.10;99.90
53711;DHT22;39605;52.704;6.752;2023-03-16T12:46:12;9.20;99.90
53711;DHT22;39605;52.704;6.752;2023-03-16T12:48:39;9.20;1.00
53711;DHT22;39605;52.704;6.752;2023-03-16T12:51:08;9.20;1.00
53711;DHT22;39605;52.704;6.752;2023-03-16T12:56:28;9.00;80.40
53711;DHT22;39605;52.704;6.752;2023-03-16T12:58:57;9.00;99.90
53711;DHT22;39605;52.704;6.752;2023-03-16T13:01:27;9.10;99.90
53711;DHT22;39605;52.704;6.752;2023-03-16T13:06:35;9.10;99.90
53711;DHT22;39605;52.704;6.752;2023-03-16T13:09:02;9.10;1.00
53711;DHT22;39605;52.704;6.752;2023-03-16T13:11:43;9.10;22.00
53711;DHT22;39605;52.704;6.752;2023-03-16T13:14:29;9.00;1.00
53711;DHT22;39605;52.704;6.752;2023-03-16T13:17:03;9.10;99.90
53711;DHT22;39605;52.704;6.752;2023-03-16T13:19:30;9.10;1.00
53711;DHT22;39605;52.704;6.752;2023-03-16T13:22:26;9.10;1.00
53711;DHT22;39605;52.704;6.752;2023-03-16T13:25:09;9.20;99.90
53711;DHT22;39605;52.704;6.752;2023-03-16T13:27:37;9.30;6.80
53711;DHT22;39605;52.704;6.752;2023-03-16T13:30:26;9.30;1.00
53711;DHT22;39605;52.704;6.752;2023-03-16T13:32:54;9.50;99.90
53711;DHT22;39605;52.704;6.752;2023-03-16T13:35:27;9.60;94.30
53711;DHT22;39605;52.704;6.752;2023-03-16T13:37:54;9.80;1.00
53711;DHT22;39605;52.704;6.752;2023-03-16T13:40:27;10.00;99.90
53711;DHT22;39605;52.704;6.752;2023-03-16T13:42:57;10.30;43.40
53711;DHT22;39605;52.704;6.752;2023-03-16T13:45:36;10.40;99.90
53711;DHT22;39605;52.704;6.752;2023-03-16T13:48:03;10.50;54.90
53711;DHT22;39605;52.704;6.752;2023-03-16T13:50:35;10.50;99.90
53711;DHT22;39605;52.704;6.752;2023-03-16T13:53:04;10.60;99.90
53711;DHT22;39605;52.704;6.752;2023-03-16T13:55:36;10.60;99.90
53711;DHT22;39605;52.704;6.752;2023-03-16T13:58:03;10.60;99.90
53711;DHT22;39605;52.704;6.752;2023-03-16T14:00:33;10.60;99.90
53711;DHT22;39605;52.704;6.752;2023-03-16T14:03:07;10.60;99.90
53711;DHT22;39605;52.704;6.752;2023-03-16T14:05:34;10.60;99.90
53711;DHT22;39605;52.704;6.752;2023-03-16T14:08:01;10.70;99.90
53711;DHT22;39605;52.704;6.752;2023-03-16T14:10:35;10.80;99.90
53711;DHT22;39605;52.704;6.752;2023-03-16T14:13:22;10.80;1.00
53711;DHT22;39605;52.704;6.752;2023-03-16T14:15:48;10.80;1.00
53711;DHT22;39605;52.704;6.752;2023-03-16T14:18:19;10.80;1.00
53711;DHT22;39605;52.704;6.752;2023-03-16T14:20:51;10.80;1.00
53711;DHT22;39605;52.704;6.752;2023-03-16T14:23:20;10.70;1.00
53711;DHT22;39605;52.704;6.752;2023-03-16T14:25:47;10.70;1.00
53711;DHT22;39605;52.704;6.752;2023-03-16T14:28:15;10.70;1.00
53711;DHT22;39605;52.704;6.752;2023-03-16T14:31:02;10.70;1.00
53711;DHT22;39605;52.704;6.752;2023-03-16T14:33:31;10.70;99.90
53711;DHT22;39605;52.704;6.752;2023-03-16T14:35:59;10.70;99.90
53711;DHT22;39605;52.704;6.752;2023-03-16T14:38:33;10.80;99.90
53711;DHT22;39605;52.704;6.752;2023-03-16T14:41:09;10.90;99.90
53711;DHT22;39605;52.704;6.752;2023-03-16T14:43:43;10.90;99.90
53711;DHT22;39605;52.704;6.752;2023-03-16T14:46:28;11.00;99.90
53711;DHT22;39605;52.704;6.752;2023-03-16T14:48:58;11.10;99.90
53711;DHT22;39605;52.704;6.752;2023-03-16T14:51:24;11.30;99.90
53711;DHT22;39605;52.704;6.752;2023-03-16T14:53:50;11.40;99.90
53711;DHT22;39605;52.704;6.752;2023-03-16T14:56:16;11.60;99.90
53711;DHT22;39605;52.704;6.752;2023-03-16T14:58:42;11.70;22.00
53711;DHT22;39605;52.704;6.752;2023-03-16T15:01:14;11.60;1.00
53711;DHT22;39605;52.704;6.752;2023-03-16T15:03:42;11.60;1.00
53711;DHT22;39605;52.704;6.752;2023-03-16T15:06:09;11.60;1.00
53711;DHT22;39605;52.704;6.752;2023-03-16T15:08:44;11.50;1.00
53711;DHT22;39605;52.704;6.752;2023-03-16T15:11:11;11.40;1.00
53711;DHT22;39605;52.704;6.752;2023-03-16T15:13:37;11.30;99.90
53711;DHT22;39605;52.704;6.752;2023-03-16T15:16:08;11.30;99.90
53711;DHT22;39605;52.704;6.752;2023-03-16T15:18:36;11.20;99.90
53711;DHT22;39605;52.704;6.752;2023-03-16T15:21:12;11.20;99.90
53711;DHT22;39605;52.704;6.752;2023-03-16T15:23:42;11.20;99.90
53711;DHT22;39605;52.704;6.752;2023-03-16T15:26:10;11.20;99.90
53711;DHT22;39605;52.704;6.752;2023-03-16T15:28:36;11.10;99.90
53711;DHT22;39605;52.704;6.752;2023-03-16T15:31:03;11.10;99.90
53711;DHT22;39605;52.704;6.752;2023-03-16T15:33:29;11.10;99.90
53711;DHT22;39605;52.704;6.752;2023-03-16T15:35:57;11.00;99.90
53711;DHT22;39605;52.704;6.752;2023-03-16T15:38:31;11.00;99.90
53711;DHT22;39605;52.704;6.752;2023-03-16T15:40:58;10.90;99.90
53711;DHT22;39605;52.704;6.752;2023-03-16T15:43:27;10.90;99.90
53711;DHT22;39605;52.704;6.752;2023-03-16T15:45:54;10.90;99.90
53711;DHT22;39605;52.704;6.752;2023-03-16T15:48:20;10.80;99.90
53711;DHT22;39605;52.704;6.752;2023-03-16T15:51:26;10.80;99.90
53711;DHT22;39605;52.704;6.752;2023-03-16T15:53:56;10.80;99.90
53711;DHT22;39605;52.704;6.752;2023-03-16T15:56:27;10.80;1.00
53711;DHT22;39605;52.704;6.752;2023-03-16T15:59:00;10.80;1.00
53711;DHT22;39605;52.704;6.752;2023-03-16T16:01:29;10.80;1.00
53711;DHT22;39605;52.704;6.752;2023-03-16T16:03:56;10.80;1.00
53711;DHT22;39605;52.704;6.752;2023-03-16T16:06:23;10.80;1.00
53711;DHT22;39605;52.704;6.752;2023-03-16T16:08:49;10.70;1.00
53711;DHT22;39605;52.704;6.752;2023-03-16T16:11:18;10.70;1.00
53711;DHT22;39605;52.704;6.752;2023-03-16T16:13:48;10.70;1.00
53711;DHT22;39605;52.704;6.752;2023-03-16T16:16:17;10.70;1.00
53711;DHT22;39605;52.704;6.752;2023-03-16T16:18:43;10.70;1.00
53711;DHT22;39605;52.704;6.752;2023-03-16T16:21:20;10.60;1.00
53711;DHT22;39605;52.704;6.752;2023-03-16T16:23:47;10.60;1.00
53711;DHT22;39605;52.704;6.752;2023-03-16T16:28:47;10.60;1.00
53711;DHT22;39605;52.704;6.752;2023-03-16T16:31:13;10.60;1.00
53711;DHT22;39605;52.704;6.752;2023-03-16T16:33:39;10.60;1.00
53711;DHT22;39605;52.704;6.752;2023-03-16T16:36:10;10.50;1.00
53711;DHT22;39605;52.704;6.752;2023-03-16T16:38:38;10.50;1.00
53711;DHT22;39605;52.704;6.752;2023-03-16T16:41:07;10.40;1.00
53711;DHT22;39605;52.704;6.752;2023-03-16T16:46:05;10.30;1.00
53711;DHT22;39605;52.704;6.752;2023-03-16T16:48:36;10.20;1.00
53711;DHT22;39605;52.704;6.752;2023-03-16T16:51:04;10.20;1.00
53711;DHT22;39605;52.704;6.752;2023-03-16T16:53:32;10.10;1.00
53711;DHT22;39605;52.704;6.752;2023-03-16T16:55:57;10.00;34.80
53711;DHT22;39605;52.704;6.752;2023-03-16T16:58:23;10.00;22.90
53711;DHT22;39605;52.704;6.752;2023-03-16T17:00:55;9.90;43.80
53711;DHT22;39605;52.704;6.752;2023-03-16T17:03:26;9.90;74.60
53711;DHT22;39605;52.704;6.752;2023-03-16T17:05:54;9.90;83.60
53711;DHT22;39605;52.704;6.752;2023-03-16T17:08:20;9.80;99.90
53711;DHT22;39605;52.704;6.752;2023-03-16T17:10:46;9.70;99.90
53711;DHT22;39605;52.704;6.752;2023-03-16T17:13:27;9.70;99.90
53711;DHT22;39605;52.704;6.752;2023-03-16T17:15:55;9.70;99.90
53711;DHT22;39605;52.704;6.752;2023-03-16T17:18:21;9.60;99.90